sensor_id;sensor_type;location;lat;lon;timestamp;P1;durP1;ratioP1;P2;durP2;ratioP2
5077;SDS011;2557;51.390;7.494;2023-02-15T00:01:07;35.77;;;17.47;;
5077;SDS011;2557;51.390;7.494;2023-02-15T00:03:33;26.92;;;15.07;;
5077;SDS011;2557;51.390;7.494;2023-02-15T00:05:59;33.10;;;17.55;;
5077;SDS011;2557;51.390;7.494;2023-02-15T00:08:25;30.38;;;16.63;;
5077;SDS011;2557;51.390;7.494;2023-02-15T00:10:51;30.95;;;16.13;;
5077;SDS011;2557;51.390;7.494;2023-02-15T00:13:17;29.80;;;14.90;;
5077;SDS011;2557;51.390;7.494;2023-02-15T00:15:43;20.40;;;12.13;;
5077;SDS011;2557;51.390;7.494;2023-02-15T00:18:09;25.80;;;14.43;;
5077;SDS011;2557;51.390;7.494;2023-02-15T00:20:35;24.10;;;14.57;;
5077;SDS011;2557;51.390;7.494;2023-02-15T00:23:01;30.27;;;14.93;;
5077;SDS011;2557;51.390;7.494;2023-02-15T00:25:27;25.80;;;15.93;;
5077;SDS011;2557;51.390;7.494;2023-02-15T00:27:53;38.87;;;22.23;;
5077;SDS011;2557;51.390;7.494;2023-02-15T00:30:19;33.67;;;18.17;;
5077;SDS011;2557;51.390;7.494;2023-02-15T00:32:47;31.75;;;18.05;;
5077;SDS011;2557;51.390;7.494;2023-02-15T00:35:13;30.38;;;17.88;;
5077;SDS011;2557;51.390;7.494;2023-02-15T00:37:39;25.98;;;14.60;;
5077;SDS011;2557;51.390;7.494;2023-02-15T00:40:05;25.10;;;14.50;;
5077;SDS011;2557;51.390;7.494;2023-02-15T00:42:31;25.30;;;15.00;;
5077;SDS011;2557;51.390;7.494;2023-02-15T00:44:57;30.90;;;16.50;;
5077;SDS011;2557;51.390;7.494;2023-02-15T00:47:23;26.52;;;15.93;;
5077;SDS011;2557;51.390;7.494;2023-02-15T00:49:50;28.02;;;16.40;;
5077;SDS011;2557;51.390;7.494;2023-02-15T00:52:16;26.88;;;16.02;;
5077;SDS011;2557;51.390;7.494;2023-02-15T00:54:42;22.57;;;13.83;;
5077;SDS011;2557;51.390;7.494;2023-02-15T00:57:08;31.17;;;16.20;;
5077;SDS011;2557;51.390;7.494;2023-02-15T00:59:34;25.50;;;13.48;;
5077;SDS011;2557;51.390;7.494;2023-02-15T01:02:00;31.37;;;15.50;;
5077;SDS011;2557;51.390;7.494;2023-02-15T01:04:26;26.33;;;15.27;;
5077;SDS011;2557;51.390;7.494;2023-02-15T01:06:52;31.87;;;15.90;;
5077;SDS011;2557;51.390;7.494;2023-02-15T01:09:18;30.67;;;15.50;;
5077;SDS011;2557;51.390;7.494;2023-02-15T01:11:44;25.93;;;15.00;;
5077;SDS011;2557;51.390;7.494;2023-02-15T01:14:10;26.37;;;15.03;;
5077;SDS011;2557;51.390;7.494;2023-02-15T01:16:36;29.67;;;16.25;;
5077;SDS011;2557;51.390;7.494;2023-02-15T01:19:02;32.07;;;15.63;;
5077;SDS011;2557;51.390;7.494;2023-02-15T01:21:28;31.15;;;16.40;;
5077;SDS011;2557;51.390;7.494;2023-02-15T01:23:54;26.00;;;14.50;;
5077;SDS011;2557;51.390;7.494;2023-02-15T01:26:20;27.85;;;15.77;;
5077;SDS011;2557;51.390;7.494;2023-02-15T01:28:46;32.40;;;18.33;;
5077;SDS011;2557;51.390;7.494;2023-02-15T01:31:13;27.90;;;14.88;;
5077;SDS011;2557;51.390;7.494;2023-02-15T01:33:40;33.28;;;17.50;;
5077;SDS011;2557;51.390;7.494;2023-02-15T01:36:06;35.38;;;19.42;;
5077;SDS011;2557;51.390;7.494;2023-02-15T01:38:32;32.78;;;18.15;;
5077;SDS011;2557;51.390;7.494;2023-02-15T01:40:58;29.65;;;17.00;;
5077;SDS011;2557;51.390;7.494;2023-02-15T01:43:45;27.77;;;15.88;;
5077;SDS011;2557;51.390;7.494;2023-02-15T01:46:11;34.80;;;18.90;;
5077;SDS011;2557;51.390;7.494;2023-02-15T01:48:40;25.95;;;15.75;;
5077;SDS011;2557;51.390;7.494;2023-02-15T01:51:08;26.08;;;15.30;;
5077;SDS011;2557;51.390;7.494;2023-02-15T01:53:35;30.35;;;16.38;;
5077;SDS011;2557;51.390;7.494;2023-02-15T01:56:15;33.05;;;15.35;;
5077;SDS011;2557;51.390;7.494;2023-02-15T01:58:43;30.33;;;16.70;;
5077;SDS011;2557;51.390;7.494;2023-02-15T02:01:10;26.65;;;15.27;;
5077;SDS011;2557;51.390;7.494;2023-02-15T02:03:44;26.80;;;15.37;;
5077;SDS011;2557;51.390;7.494;2023-02-15T02:06:14;31.85;;;17.98;;
5077;SDS011;2557;51.390;7.494;2023-02-15T02:08:41;26.45;;;14.90;;
5077;SDS011;2557;51.390;7.494;2023-02-15T02:11:11;31.17;;;17.50;;
5077;SDS011;2557;51.390;7.494;2023-02-15T02:13:37;42.00;;;19.20;;
5077;SDS011;2557;51.390;7.494;2023-02-15T02:16:06;35.72;;;17.58;;
5077;SDS011;2557;51.390;7.494;2023-02-15T02:18:41;31.90;;;15.85;;
5077;SDS011;2557;51.390;7.494;2023-02-15T02:23:43;26.40;;;15.53;;
5077;SDS011;2557;51.390;7.494;2023-02-15T02:37:19;32.72;;;17.20;;
5077;SDS011;2557;51.390;7.494;2023-02-15T02:42:40;29.60;;;17.50;;
5077;SDS011;2557;51.390;7.494;2023-02-15T02:45:08;31.45;;;17.80;;
5077;SDS011;2557;51.390;7.494;2023-02-15T02:50:07;31.17;;;17.45;;
5077;SDS011;2557;51.390;7.494;2023-02-15T02:52:41;31.30;;;17.70;;
5077;SDS011;2557;51.390;7.494;2023-02-15T02:55:12;26.20;;;17.33;;
5077;SDS011;2557;51.390;7.494;2023-02-15T02:57:41;37.15;;;18.83;;
5077;SDS011;2557;51.390;7.494;2023-02-15T03:00:09;29.48;;;16.67;;
5077;SDS011;2557;51.390;7.494;2023-02-15T03:02:36;29.85;;;16.05;;
5077;SDS011;2557;51.390;7.494;2023-02-15T03:05:04;33.35;;;16.75;;
5077;SDS011;2557;51.390;7.494;2023-02-15T03:07:32;34.95;;;19.10;;
5077;SDS011;2557;51.390;7.494;2023-02-15T03:10:01;35.42;;;17.67;;
5077;SDS011;2557;51.390;7.494;2023-02-15T03:12:31;32.50;;;17.08;;
5077;SDS011;2557;51.390;7.494;2023-02-15T03:15:01;39.47;;;19.35;;
5077;SDS011;2557;51.390;7.494;2023-02-15T03:17:29;37.33;;;18.73;;
5077;SDS011;2557;51.390;7.494;2023-02-15T03:19:57;38.00;;;19.45;;
5077;SDS011;2557;51.390;7.494;2023-02-15T03:22:25;38.10;;;20.50;;
5077;SDS011;2557;51.390;7.494;2023-02-15T03:24:58;30.17;;;16.80;;
5077;SDS011;2557;51.390;7.494;2023-02-15T03:27:26;31.67;;;17.85;;
5077;SDS011;2557;51.390;7.494;2023-02-15T03:29:55;36.10;;;18.30;;
5077;SDS011;2557;51.390;7.494;2023-02-15T03:32:21;36.13;;;20.98;;
5077;SDS011;2557;51.390;7.494;2023-02-15T03:34:48;31.65;;;18.92;;
5077;SDS011;2557;51.390;7.494;2023-02-15T03:42:26;34.88;;;18.27;;
5077;SDS011;2557;51.390;7.494;2023-02-15T03:44:57;29.00;;;18.85;;
5077;SDS011;2557;51.390;7.494;2023-02-15T03:47:25;35.00;;;18.42;;
5077;SDS011;2557;51.390;7.494;2023-02-15T03:49:55;33.53;;;18.20;;
5077;SDS011;2557;51.390;7.494;2023-02-15T03:52:23;32.85;;;17.70;;
5077;SDS011;2557;51.390;7.494;2023-02-15T03:54:50;32.53;;;16.92;;
5077;SDS011;2557;51.390;7.494;2023-02-15T03:57:24;27.25;;;15.98;;
5077;SDS011;2557;51.390;7.494;2023-02-15T04:00:12;34.08;;;17.33;;
5077;SDS011;2557;51.390;7.494;2023-02-15T04:05:43;34.58;;;18.65;;
5077;SDS011;2557;51.390;7.494;2023-02-15T04:08:10;35.75;;;18.75;;
5077;SDS011;2557;51.390;7.494;2023-02-15T04:10:36;30.83;;;17.42;;
5077;SDS011;2557;51.390;7.494;2023-02-15T04:13:51;31.48;;;19.05;;
5077;SDS011;2557;51.390;7.494;2023-02-15T04:16:10;31.45;;;16.90;;
5077;SDS011;2557;51.390;7.494;2023-02-15T04:18:37;39.65;;;19.30;;
5077;SDS011;2557;51.390;7.494;2023-02-15T04:21:22;31.00;;;18.98;;
5077;SDS011;2557;51.390;7.494;2023-02-15T04:24:08;36.35;;;21.13;;
5077;SDS011;2557;51.390;7.494;2023-02-15T04:26:53;36.45;;;18.95;;
5077;SDS011;2557;51.390;7.494;2023-02-15T04:29:19;30.15;;;16.88;;
5077;SDS011;2557;51.390;7.494;2023-02-15T04:31:46;40.53;;;19.00;;
5077;SDS011;2557;51.390;7.494;2023-02-15T04:34:12;37.38;;;19.90;;
5077;SDS011;2557;51.390;7.494;2023-02-15T04:36:38;38.13;;;18.23;;
5077;SDS011;2557;51.390;7.494;2023-02-15T04:39:04;40.70;;;20.25;;
5077;SDS011;2557;51.390;7.494;2023-02-15T04:41:31;30.52;;;16.83;;
5077;SDS011;2557;51.390;7.494;2023-02-15T04:43:57;37.10;;;19.25;;
5077;SDS011;2557;51.390;7.494;2023-02-15T04:46:24;38.55;;;22.30;;
5077;SDS011;2557;51.390;7.494;2023-02-15T04:48:50;40.72;;;21.23;;
5077;SDS011;2557;51.390;7.494;2023-02-15T04:51:16;30.20;;;17.90;;
5077;SDS011;2557;51.390;7.494;2023-02-15T04:53:42;36.80;;;20.00;;
5077;SDS011;2557;51.390;7.494;2023-02-15T04:56:08;31.57;;;16.83;;
5077;SDS011;2557;51.390;7.494;2023-02-15T04:58:34;32.10;;;18.58;;
5077;SDS011;2557;51.390;7.494;2023-02-15T05:01:01;34.92;;;19.58;;
5077;SDS011;2557;51.390;7.494;2023-02-15T05:03:28;40.47;;;19.48;;
5077;SDS011;2557;51.390;7.494;2023-02-15T05:05:54;36.60;;;18.52;;
5077;SDS011;2557;51.390;7.494;2023-02-15T05:08:20;34.90;;;18.70;;
5077;SDS011;2557;51.390;7.494;2023-02-15T05:10:48;34.97;;;17.88;;
5077;SDS011;2557;51.390;7.494;2023-02-15T05:13:15;36.38;;;19.75;;
5077;SDS011;2557;51.390;7.494;2023-02-15T05:15:40;32.65;;;19.45;;
5077;SDS011;2557;51.390;7.494;2023-02-15T05:18:06;32.60;;;18.50;;
5077;SDS011;2557;51.390;7.494;2023-02-15T05:20:33;32.90;;;19.50;;
5077;SDS011;2557;51.390;7.494;2023-02-15T05:22:59;33.13;;;17.85;;
5077;SDS011;2557;51.390;7.494;2023-02-15T05:25:25;36.67;;;19.43;;
5077;SDS011;2557;51.390;7.494;2023-02-15T05:28:10;40.85;;;19.65;;
5077;SDS011;2557;51.390;7.494;2023-02-15T05:30:46;33.47;;;18.55;;
5077;SDS011;2557;51.390;7.494;2023-02-15T05:33:12;33.45;;;18.45;;
5077;SDS011;2557;51.390;7.494;2023-02-15T05:35:38;35.93;;;18.83;;
5077;SDS011;2557;51.390;7.494;2023-02-15T05:38:04;38.80;;;18.37;;
5077;SDS011;2557;51.390;7.494;2023-02-15T05:40:30;34.77;;;19.33;;
5077;SDS011;2557;51.390;7.494;2023-02-15T05:42:56;29.90;;;17.83;;
5077;SDS011;2557;51.390;7.494;2023-02-15T05:45:22;35.50;;;19.42;;
5077;SDS011;2557;51.390;7.494;2023-02-15T05:47:48;38.95;;;19.25;;
5077;SDS011;2557;51.390;7.494;2023-02-15T05:50:14;39.58;;;20.25;;
5077;SDS011;2557;51.390;7.494;2023-02-15T05:52:40;31.52;;;18.42;;
5077;SDS011;2557;51.390;7.494;2023-02-15T05:55:06;35.50;;;19.13;;
5077;SDS011;2557;51.390;7.494;2023-02-15T05:57:33;43.13;;;19.45;;
5077;SDS011;2557;51.390;7.494;2023-02-15T05:59:59;32.75;;;19.42;;
5077;SDS011;2557;51.390;7.494;2023-02-15T06:02:25;37.22;;;19.60;;
5077;SDS011;2557;51.390;7.494;2023-02-15T06:04:51;39.37;;;21.20;;
5077;SDS011;2557;51.390;7.494;2023-02-15T06:07:17;35.53;;;18.83;;
5077;SDS011;2557;51.390;7.494;2023-02-15T06:09:43;44.55;;;20.85;;
5077;SDS011;2557;51.390;7.494;2023-02-15T06:12:09;43.60;;;20.33;;
5077;SDS011;2557;51.390;7.494;2023-02-15T06:14:35;44.27;;;23.67;;
5077;SDS011;2557;51.390;7.494;2023-02-15T06:17:01;39.90;;;19.55;;
5077;SDS011;2557;51.390;7.494;2023-02-15T06:19:27;47.33;;;21.80;;
5077;SDS011;2557;51.390;7.494;2023-02-15T06:21:53;39.72;;;20.90;;
5077;SDS011;2557;51.390;7.494;2023-02-15T06:24:19;37.77;;;20.20;;
5077;SDS011;2557;51.390;7.494;2023-02-15T06:26:45;34.17;;;18.53;;
5077;SDS011;2557;51.390;7.494;2023-02-15T06:29:11;41.87;;;20.63;;
5077;SDS011;2557;51.390;7.494;2023-02-15T06:31:37;33.90;;;19.25;;
5077;SDS011;2557;51.390;7.494;2023-02-15T06:34:03;35.13;;;20.30;;
5077;SDS011;2557;51.390;7.494;2023-02-15T06:36:29;50.30;;;21.35;;
5077;SDS011;2557;51.390;7.494;2023-02-15T06:38:56;39.00;;;19.50;;
5077;SDS011;2557;51.390;7.494;2023-02-15T06:41:22;33.15;;;17.58;;
5077;SDS011;2557;51.390;7.494;2023-02-15T06:43:48;38.28;;;19.75;;
5077;SDS011;2557;51.390;7.494;2023-02-15T06:46:14;46.50;;;21.52;;
5077;SDS011;2557;51.390;7.494;2023-02-15T06:48:40;38.53;;;20.23;;
5077;SDS011;2557;51.390;7.494;2023-02-15T06:51:06;39.53;;;20.63;;
5077;SDS011;2557;51.390;7.494;2023-02-15T06:53:32;44.72;;;23.30;;
5077;SDS011;2557;51.390;7.494;2023-02-15T06:56:05;36.60;;;19.55;;
5077;SDS011;2557;51.390;7.494;2023-02-15T06:58:33;36.17;;;19.50;;
5077;SDS011;2557;51.390;7.494;2023-02-15T07:01:00;42.30;;;21.50;;
5077;SDS011;2557;51.390;7.494;2023-02-15T07:03:26;39.93;;;22.03;;
5077;SDS011;2557;51.390;7.494;2023-02-15T07:05:55;38.10;;;19.60;;
5077;SDS011;2557;51.390;7.494;2023-02-15T07:08:22;41.85;;;20.80;;
5077;SDS011;2557;51.390;7.494;2023-02-15T07:10:48;38.83;;;22.35;;
5077;SDS011;2557;51.390;7.494;2023-02-15T07:13:15;41.55;;;20.48;;
5077;SDS011;2557;51.390;7.494;2023-02-15T07:15:40;42.20;;;20.08;;
5077;SDS011;2557;51.390;7.494;2023-02-15T07:18:06;40.87;;;20.03;;
5077;SDS011;2557;51.390;7.494;2023-02-15T07:20:34;43.67;;;24.38;;
5077;SDS011;2557;51.390;7.494;2023-02-15T07:23:00;35.35;;;19.15;;
5077;SDS011;2557;51.390;7.494;2023-02-15T07:25:26;40.75;;;19.58;;
5077;SDS011;2557;51.390;7.494;2023-02-15T07:27:59;46.83;;;20.67;;
5077;SDS011;2557;51.390;7.494;2023-02-15T07:30:26;40.28;;;22.13;;
5077;SDS011;2557;51.390;7.494;2023-02-15T07:32:55;43.72;;;20.52;;
5077;SDS011;2557;51.390;7.494;2023-02-15T07:35:46;43.15;;;21.70;;
5077;SDS011;2557;51.390;7.494;2023-02-15T07:38:12;37.50;;;18.60;;
5077;SDS011;2557;51.390;7.494;2023-02-15T07:40:38;34.30;;;19.47;;
5077;SDS011;2557;51.390;7.494;2023-02-15T07:43:04;44.87;;;21.70;;
5077;SDS011;2557;51.390;7.494;2023-02-15T07:45:30;37.70;;;20.93;;
5077;SDS011;2557;51.390;7.494;2023-02-15T07:47:56;48.40;;;24.30;;
5077;SDS011;2557;51.390;7.494;2023-02-15T07:50:22;40.15;;;23.08;;
5077;SDS011;2557;51.390;7.494;2023-02-15T07:52:48;47.78;;;23.05;;
5077;SDS011;2557;51.390;7.494;2023-02-15T07:55:14;41.65;;;24.55;;
5077;SDS011;2557;51.390;7.494;2023-02-15T07:57:43;39.40;;;23.17;;
5077;SDS011;2557;51.390;7.494;2023-02-15T08:00:10;38.92;;;20.73;;
5077;SDS011;2557;51.390;7.494;2023-02-15T08:02:37;34.90;;;20.65;;
5077;SDS011;2557;51.390;7.494;2023-02-15T08:05:03;37.87;;;20.90;;
5077;SDS011;2557;51.390;7.494;2023-02-15T08:07:29;43.00;;;23.77;;
5077;SDS011;2557;51.390;7.494;2023-02-15T08:09:55;33.80;;;20.83;;
5077;SDS011;2557;51.390;7.494;2023-02-15T08:12:20;40.87;;;21.77;;
5077;SDS011;2557;51.390;7.494;2023-02-15T08:14:46;36.80;;;20.97;;
5077;SDS011;2557;51.390;7.494;2023-02-15T08:17:12;32.55;;;20.65;;
5077;SDS011;2557;51.390;7.494;2023-02-15T08:19:38;35.10;;;20.57;;
5077;SDS011;2557;51.390;7.494;2023-02-15T08:22:06;47.60;;;20.55;;
5077;SDS011;2557;51.390;7.494;2023-02-15T08:24:33;38.20;;;20.42;;
5077;SDS011;2557;51.390;7.494;2023-02-15T08:26:59;49.47;;;19.33;;
5077;SDS011;2557;51.390;7.494;2023-02-15T08:29:27;35.88;;;20.27;;
5077;SDS011;2557;51.390;7.494;2023-02-15T08:31:55;37.70;;;21.98;;
5077;SDS011;2557;51.390;7.494;2023-02-15T08:34:23;34.15;;;20.00;;
5077;SDS011;2557;51.390;7.494;2023-02-15T08:36:49;31.70;;;19.25;;
5077;SDS011;2557;51.390;7.494;2023-02-15T08:39:16;39.25;;;20.52;;
5077;SDS011;2557;51.390;7.494;2023-02-15T08:41:43;38.78;;;21.80;;
5077;SDS011;2557;51.390;7.494;2023-02-15T08:44:09;33.40;;;18.85;;
5077;SDS011;2557;51.390;7.494;2023-02-15T08:46:36;40.88;;;22.00;;
5077;SDS011;2557;51.390;7.494;2023-02-15T08:49:02;38.53;;;20.75;;
5077;SDS011;2557;51.390;7.494;2023-02-15T08:51:30;37.22;;;19.88;;
5077;SDS011;2557;51.390;7.494;2023-02-15T08:53:57;33.00;;;19.63;;
5077;SDS011;2557;51.390;7.494;2023-02-15T08:56:24;36.28;;;20.02;;
5077;SDS011;2557;51.390;7.494;2023-02-15T08:58:51;38.80;;;19.70;;
5077;SDS011;2557;51.390;7.494;2023-02-15T09:01:19;32.70;;;19.98;;
5077;SDS011;2557;51.390;7.494;2023-02-15T09:03:46;34.13;;;18.40;;
5077;SDS011;2557;51.390;7.494;2023-02-15T09:06:12;31.23;;;19.87;;
5077;SDS011;2557;51.390;7.494;2023-02-15T09:08:39;33.05;;;20.08;;
5077;SDS011;2557;51.390;7.494;2023-02-15T09:13:34;40.93;;;19.43;;
5077;SDS011;2557;51.390;7.494;2023-02-15T09:16:00;35.43;;;18.37;;
5077;SDS011;2557;51.390;7.494;2023-02-15T09:18:27;38.03;;;20.10;;
5077;SDS011;2557;51.390;7.494;2023-02-15T09:20:53;32.63;;;19.73;;
5077;SDS011;2557;51.390;7.494;2023-02-15T09:23:20;30.50;;;20.70;;
5077;SDS011;2557;51.390;7.494;2023-02-15T09:25:46;35.47;;;19.67;;
5077;SDS011;2557;51.390;7.494;2023-02-15T09:28:12;29.07;;;19.10;;
5077;SDS011;2557;51.390;7.494;2023-02-15T09:30:38;28.93;;;19.67;;
5077;SDS011;2557;51.390;7.494;2023-02-15T09:33:04;38.17;;;18.53;;
5077;SDS011;2557;51.390;7.494;2023-02-15T09:35:30;29.13;;;20.10;;
5077;SDS011;2557;51.390;7.494;2023-02-15T09:37:56;27.10;;;19.10;;
5077;SDS011;2557;51.390;7.494;2023-02-15T09:40:22;24.40;;;16.40;;
5077;SDS011;2557;51.390;7.494;2023-02-15T09:42:52;22.00;;;14.80;;
5077;SDS011;2557;51.390;7.494;2023-02-15T09:50:50;22.13;;;13.83;;
5077;SDS011;2557;51.390;7.494;2023-02-15T09:53:28;22.50;;;16.50;;
5077;SDS011;2557;51.390;7.494;2023-02-15T10:00:58;17.93;;;13.93;;
5077;SDS011;2557;51.390;7.494;2023-02-15T10:03:35;19.00;;;14.23;;
5077;SDS011;2557;51.390;7.494;2023-02-15T10:08:52;16.60;;;12.53;;
5077;SDS011;2557;51.390;7.494;2023-02-15T10:16:38;15.60;;;12.30;;
5077;SDS011;2557;51.390;7.494;2023-02-15T10:26:56;17.03;;;12.90;;
5077;SDS011;2557;51.390;7.494;2023-02-15T10:29:37;18.20;;;13.40;;
5077;SDS011;2557;51.390;7.494;2023-02-15T10:32:13;20.80;;;13.67;;
5077;SDS011;2557;51.390;7.494;2023-02-15T10:34:50;15.83;;;12.97;;
5077;SDS011;2557;51.390;7.494;2023-02-15T10:45:23;20.07;;;13.80;;
5077;SDS011;2557;51.390;7.494;2023-02-15T10:55:52;16.33;;;12.17;;
5077;SDS011;2557;51.390;7.494;2023-02-15T10:58:29;16.97;;;12.17;;
5077;SDS011;2557;51.390;7.494;2023-02-15T11:01:13;21.03;;;13.50;;
5077;SDS011;2557;51.390;7.494;2023-02-15T11:06:14;15.00;;;9.97;;
5077;SDS011;2557;51.390;7.494;2023-02-15T11:08:50;14.10;;;11.93;;
5077;SDS011;2557;51.390;7.494;2023-02-15T11:11:21;13.40;;;9.77;;
5077;SDS011;2557;51.390;7.494;2023-02-15T11:13:50;14.27;;;10.50;;
5077;SDS011;2557;51.390;7.494;2023-02-15T11:16:22;12.50;;;11.20;;
5077;SDS011;2557;51.390;7.494;2023-02-15T11:18:55;11.63;;;9.90;;
5077;SDS011;2557;51.390;7.494;2023-02-15T11:23:48;12.13;;;9.83;;
5077;SDS011;2557;51.390;7.494;2023-02-15T11:26:24;12.87;;;10.23;;
5077;SDS011;2557;51.390;7.494;2023-02-15T11:28:55;10.90;;;9.03;;
5077;SDS011;2557;51.390;7.494;2023-02-15T11:31:23;12.17;;;8.70;;
5077;SDS011;2557;51.390;7.494;2023-02-15T11:33:55;8.60;;;7.57;;
5077;SDS011;2557;51.390;7.494;2023-02-15T11:36:26;10.73;;;8.97;;
5077;SDS011;2557;51.390;7.494;2023-02-15T11:38:58;11.60;;;8.40;;
5077;SDS011;2557;51.390;7.494;2023-02-15T11:41:27;10.80;;;8.10;;
5077;SDS011;2557;51.390;7.494;2023-02-15T11:43:56;9.43;;;8.50;;
5077;SDS011;2557;51.390;7.494;2023-02-15T11:46:23;9.63;;;7.37;;
5077;SDS011;2557;51.390;7.494;2023-02-15T11:48:49;9.83;;;8.10;;
5077;SDS011;2557;51.390;7.494;2023-02-15T11:51:17;12.70;;;8.33;;
5077;SDS011;2557;51.390;7.494;2023-02-15T11:53:43;12.13;;;8.67;;
5077;SDS011;2557;51.390;7.494;2023-02-15T11:56:17;9.67;;;7.90;;
5077;SDS011;2557;51.390;7.494;2023-02-15T11:58:54;8.70;;;7.73;;
5077;SDS011;2557;51.390;7.494;2023-02-15T12:01:29;12.87;;;9.50;;
5077;SDS011;2557;51.390;7.494;2023-02-15T12:06:46;8.63;;;7.77;;
5077;SDS011;2557;51.390;7.494;2023-02-15T12:09:17;8.70;;;7.40;;
5077;SDS011;2557;51.390;7.494;2023-02-15T12:11:46;7.80;;;7.07;;
5077;SDS011;2557;51.390;7.494;2023-02-15T12:14:12;8.90;;;8.00;;
5077;SDS011;2557;51.390;7.494;2023-02-15T12:16:46;11.20;;;8.37;;
5077;SDS011;2557;51.390;7.494;2023-02-15T12:19:32;9.93;;;8.73;;
5077;SDS011;2557;51.390;7.494;2023-02-15T12:22:02;8.87;;;7.60;;
5077;SDS011;2557;51.390;7.494;2023-02-15T12:24:33;12.20;;;8.67;;
5077;SDS011;2557;51.390;7.494;2023-02-15T12:29:27;11.93;;;10.10;;
5077;SDS011;2557;51.390;7.494;2023-02-15T12:31:55;10.33;;;9.10;;
5077;SDS011;2557;51.390;7.494;2023-02-15T12:34:31;10.40;;;8.50;;
5077;SDS011;2557;51.390;7.494;2023-02-15T12:37:01;12.67;;;9.33;;
5077;SDS011;2557;51.390;7.494;2023-02-15T12:39:28;9.27;;;8.20;;
5077;SDS011;2557;51.390;7.494;2023-02-15T12:44:21;11.03;;;8.30;;
5077;SDS011;2557;51.390;7.494;2023-02-15T12:47:02;13.03;;;9.00;;
5077;SDS011;2557;51.390;7.494;2023-02-15T12:49:32;10.83;;;9.43;;
5077;SDS011;2557;51.390;7.494;2023-02-15T12:52:00;18.03;;;9.50;;
5077;SDS011;2557;51.390;7.494;2023-02-15T12:56:55;10.13;;;8.50;;
5077;SDS011;2557;51.390;7.494;2023-02-15T12:59:25;14.73;;;9.37;;
5077;SDS011;2557;51.390;7.494;2023-02-15T13:01:51;12.90;;;9.63;;
5077;SDS011;2557;51.390;7.494;2023-02-15T13:04:23;13.40;;;10.20;;
5077;SDS011;2557;51.390;7.494;2023-02-15T13:06:51;11.93;;;8.80;;
5077;SDS011;2557;51.390;7.494;2023-02-15T13:09:20;12.37;;;8.97;;
5077;SDS011;2557;51.390;7.494;2023-02-15T13:11:46;13.33;;;9.60;;
5077;SDS011;2557;51.390;7.494;2023-02-15T13:16:41;16.70;;;10.97;;
5077;SDS011;2557;51.390;7.494;2023-02-15T13:19:12;13.10;;;9.60;;
5077;SDS011;2557;51.390;7.494;2023-02-15T13:21:41;13.03;;;9.93;;
5077;SDS011;2557;51.390;7.494;2023-02-15T13:26:43;15.43;;;9.33;;
5077;SDS011;2557;51.390;7.494;2023-02-15T13:29:15;15.23;;;10.70;;
5077;SDS011;2557;51.390;7.494;2023-02-15T13:31:43;19.27;;;10.43;;
5077;SDS011;2557;51.390;7.494;2023-02-15T13:34:20;15.90;;;10.80;;
5077;SDS011;2557;51.390;7.494;2023-02-15T13:39:17;12.63;;;9.60;;
5077;SDS011;2557;51.390;7.494;2023-02-15T13:42:01;11.10;;;9.10;;
5077;SDS011;2557;51.390;7.494;2023-02-15T13:44:44;12.03;;;8.80;;
5077;SDS011;2557;51.390;7.494;2023-02-15T13:52:19;11.90;;;9.03;;
5077;SDS011;2557;51.390;7.494;2023-02-15T13:54:59;14.47;;;10.10;;
5077;SDS011;2557;51.390;7.494;2023-02-15T14:03:05;12.33;;;8.70;;
5077;SDS011;2557;51.390;7.494;2023-02-15T14:05:41;14.13;;;9.60;;
5077;SDS011;2557;51.390;7.494;2023-02-15T14:08:54;16.73;;;10.17;;
5077;SDS011;2557;51.390;7.494;2023-02-15T14:11:08;15.50;;;11.53;;
5077;SDS011;2557;51.390;7.494;2023-02-15T14:16:09;14.30;;;10.33;;
5077;SDS011;2557;51.390;7.494;2023-02-15T14:21:14;13.43;;;9.90;;
5077;SDS011;2557;51.390;7.494;2023-02-15T14:26:35;17.10;;;12.17;;
5077;SDS011;2557;51.390;7.494;2023-02-15T14:31:52;20.43;;;10.80;;
5077;SDS011;2557;51.390;7.494;2023-02-15T14:36:45;15.70;;;11.10;;
5077;SDS011;2557;51.390;7.494;2023-02-15T14:42:11;17.03;;;10.70;;
5077;SDS011;2557;51.390;7.494;2023-02-15T14:44:42;17.30;;;11.23;;
5077;SDS011;2557;51.390;7.494;2023-02-15T14:47:15;12.57;;;9.30;;
5077;SDS011;2557;51.390;7.494;2023-02-15T14:49:44;15.23;;;10.33;;
5077;SDS011;2557;51.390;7.494;2023-02-15T14:52:11;25.50;;;11.33;;
5077;SDS011;2557;51.390;7.494;2023-02-15T15:02:26;14.20;;;9.07;;
5077;SDS011;2557;51.390;7.494;2023-02-15T15:12:41;14.97;;;9.80;;
5077;SDS011;2557;51.390;7.494;2023-02-15T15:15:09;20.70;;;10.53;;
5077;SDS011;2557;51.390;7.494;2023-02-15T15:20:13;16.43;;;10.40;;
5077;SDS011;2557;51.390;7.494;2023-02-15T15:22:41;15.87;;;9.30;;
5077;SDS011;2557;51.390;7.494;2023-02-15T15:25:09;19.33;;;9.63;;
5077;SDS011;2557;51.390;7.494;2023-02-15T15:27:36;16.27;;;9.37;;
5077;SDS011;2557;51.390;7.494;2023-02-15T15:32:42;15.63;;;9.53;;
5077;SDS011;2557;51.390;7.494;2023-02-15T15:40:34;19.40;;;9.37;;
5077;SDS011;2557;51.390;7.494;2023-02-15T15:50:33;16.73;;;8.67;;
5077;SDS011;2557;51.390;7.494;2023-02-15T15:53:00;14.80;;;8.63;;
5077;SDS011;2557;51.390;7.494;2023-02-15T15:55:27;17.23;;;9.03;;
5077;SDS011;2557;51.390;7.494;2023-02-15T15:58:04;13.50;;;8.37;;
5077;SDS011;2557;51.390;7.494;2023-02-15T16:03:00;14.87;;;8.37;;
5077;SDS011;2557;51.390;7.494;2023-02-15T16:05:26;12.90;;;9.60;;
5077;SDS011;2557;51.390;7.494;2023-02-15T16:07:59;18.87;;;11.90;;
5077;SDS011;2557;51.390;7.494;2023-02-15T16:10:26;12.47;;;8.60;;
5077;SDS011;2557;51.390;7.494;2023-02-15T16:12:53;19.67;;;8.63;;
5077;SDS011;2557;51.390;7.494;2023-02-15T16:17:49;18.90;;;9.87;;
5077;SDS011;2557;51.390;7.494;2023-02-15T16:20:20;20.20;;;10.30;;
5077;SDS011;2557;51.390;7.494;2023-02-15T16:22:47;18.00;;;11.90;;
5077;SDS011;2557;51.390;7.494;2023-02-15T16:25:18;18.17;;;10.83;;
5077;SDS011;2557;51.390;7.494;2023-02-15T16:27:47;16.87;;;10.40;;
5077;SDS011;2557;51.390;7.494;2023-02-15T16:32:49;17.20;;;10.63;;
5077;SDS011;2557;51.390;7.494;2023-02-15T16:35:16;24.63;;;9.23;;
5077;SDS011;2557;51.390;7.494;2023-02-15T16:37:42;17.77;;;10.57;;
5077;SDS011;2557;51.390;7.494;2023-02-15T16:40:27;19.23;;;11.03;;
5077;SDS011;2557;51.390;7.494;2023-02-15T16:42:55;18.23;;;10.90;;
5077;SDS011;2557;51.390;7.494;2023-02-15T16:45:22;16.97;;;11.20;;
5077;SDS011;2557;51.390;7.494;2023-02-15T16:47:50;12.00;;;9.80;;
5077;SDS011;2557;51.390;7.494;2023-02-15T16:50:19;14.83;;;9.37;;
5077;SDS011;2557;51.390;7.494;2023-02-15T16:52:46;23.43;;;10.97;;
5077;SDS011;2557;51.390;7.494;2023-02-15T16:55:25;19.67;;;11.60;;
5077;SDS011;2557;51.390;7.494;2023-02-15T16:57:51;20.77;;;9.90;;
5077;SDS011;2557;51.390;7.494;2023-02-15T17:00:21;14.13;;;9.90;;
5077;SDS011;2557;51.390;7.494;2023-02-15T17:02:58;15.60;;;9.40;;
5077;SDS011;2557;51.390;7.494;2023-02-15T17:05:30;18.13;;;11.47;;
5077;SDS011;2557;51.390;7.494;2023-02-15T17:10:30;21.47;;;12.33;;
5077;SDS011;2557;51.390;7.494;2023-02-15T17:13:00;21.40;;;10.70;;
5077;SDS011;2557;51.390;7.494;2023-02-15T17:15:36;17.30;;;9.30;;
5077;SDS011;2557;51.390;7.494;2023-02-15T17:20:28;17.70;;;9.70;;
5077;SDS011;2557;51.390;7.494;2023-02-15T17:22:54;15.70;;;10.23;;
5077;SDS011;2557;51.390;7.494;2023-02-15T17:25:23;17.37;;;12.00;;
5077;SDS011;2557;51.390;7.494;2023-02-15T17:27:52;19.90;;;10.73;;
5077;SDS011;2557;51.390;7.494;2023-02-15T17:30:24;23.27;;;11.43;;
5077;SDS011;2557;51.390;7.494;2023-02-15T17:32:53;16.93;;;9.77;;
5077;SDS011;2557;51.390;7.494;2023-02-15T17:35:23;16.77;;;9.40;;
5077;SDS011;2557;51.390;7.494;2023-02-15T17:37:54;16.20;;;10.20;;
5077;SDS011;2557;51.390;7.494;2023-02-15T17:40:26;29.17;;;13.80;;
5077;SDS011;2557;51.390;7.494;2023-02-15T17:42:52;19.70;;;12.13;;
5077;SDS011;2557;51.390;7.494;2023-02-15T17:45:19;20.63;;;13.73;;
5077;SDS011;2557;51.390;7.494;2023-02-15T17:47:46;17.37;;;10.47;;